Allen, Maryland
Current Conditions -  °F | °C
As of 11:54 PM on Thursday 30 Oct 2014 (Local Time) from KSBY Reporting Station
Clear Clear  
Wind Chill: 47°   Ceiling: Unl
Heat Index: 47°   Visibility: 10mi
Dew Point: 38°   Wind: 3mph
Humidity: 71%   Direction: 10°N
Pressure: 30.02"   Gusts: NA
Location:  38.29°N, 75.69°W
Report Text: KSBY 310354Z AUTO 01003KT 10SM CLR 08/03 A3002 RMK AO2 SLP168 T00830033
Loading
Personal Weather Stations






























Interactive Weather Map
Tropical Storm Tracking
New forecast layout! Learn more

10-Day Weather Forecast

Advertisements
Track Severe Weather on mobile